หน้าหลัก
METAR-TAF:

METAR-TAF

ท่าอากาศยาน :

Lossiemouth, สกอตแลนด์

ละติจูด: 57-43N, ลองจิจูด: 003-19W, ความสูง: 13 ม.

การสังเกตสภาพอากาศปัจจุบัน

รายงานได้ทำขึ้นเมื่อ 59 นาทีที่แล้ว ณ เวลา 23:50 UTC
ลม 6 นอตจากเหนือ
อุณหภูมิ 8°C
ความชื้น 76%
ความกดอากาศ 1022 hPa
ทัศนวิสัย 10 กม. หรือมากกว่า
มีเมฆน้อยที่ความสูง 2000 ฟุต
มีเมฆเป็นส่วนมากเว้นเป็นระยะที่ความสูง 20000 ฟุต

METAR: EGQS 182350Z 35006KT 9999 FEW020 BKN200 08/04 Q1022 NOSIG RMK BLU BLU

เวลา: 01:49 (00:49 UTC)

การพยากรณ์

รายงานได้ทำขึ้นเมื่อ 2 ชั่วโมงและ 23 นาทีที่แล้ว ณ เวลา 22:26 UTC
การพยากรณ์มีผลตั้งแต่วันที่ 19 ณ เวลา 00 UTC จนถึงวันที่ 19 ณ เวลา 18 UTC
ลม 7 นอตจากเหนือ
ทัศนวิสัย 10 กม. หรือมากกว่า
มีเมฆน้อยที่ความสูง 2000 ฟุต
ความน่าจะเป็น 40% :
ชั่วคราว
ตั้งแต่วันที่ 19 ณ เวลา 15 UTC จนถึงวันที่ 19 ณ เวลา 18 UTC
ลม 15 นอตจากตะวันตกโดยมีลมกระโชกได้ถึง25 นอต

TAF: EGQS 182226Z 1900/1918 01007KT 9999 FEW020 PROB40 TEMPO 1915/1918 26015G25KT

สังเกตการณ์สภาพอากาศและพยากรณ์อากาศของสนามบินมากกว่า 4000 แห่ง (รายงาน METAR และ TAF).

สถานีที่ดูได้จะแสดงไว้ด้วยจุดสีเหลืองและสีแดงบนแผนที่.

เลื่อนเมาส์ไปเหนือจุดเพื่อดูชื่อสถานี.

แล้วคลิกเพื่อดูสังเกตการณ์และการพยากรณ์สภาพอากาศ.

ในการเปลี่ยนแผนที่: คลิกที่ปุ่มสีเขียวที่มีกากบาทสีดำเพื่อซูมเข้า; ที่ปุ่มสีเขียวที่มีขีดเพื่อซูมออก; หรือที่ลูกศรสีเขียวเพื่อไปยังแผนที่ที่อยู่ติดกัน.


METAR-TAF: